sensor_id;sensor_type;location;lat;lon;timestamp;temperature;humidity
12434;DHT22;6281;49.038;8.372;2023-06-22T00:02:03;21.90;99.90
12434;DHT22;6281;49.038;8.372;2023-06-22T00:04:30;22.10;99.90
12434;DHT22;6281;49.038;8.372;2023-06-22T00:06:57;22.20;99.90
12434;DHT22;6281;49.038;8.372;2023-06-22T00:09:23;22.30;99.90
12434;DHT22;6281;49.038;8.372;2023-06-22T00:11:52;22.30;99.90
12434;DHT22;6281;49.038;8.372;2023-06-22T00:14:19;22.30;99.90
12434;DHT22;6281;49.038;8.372;2023-06-22T00:16:45;22.30;99.90
12434;DHT22;6281;49.038;8.372;2023-06-22T00:19:14;22.20;99.90
12434;DHT22;6281;49.038;8.372;2023-06-22T00:21:41;22.10;99.90
12434;DHT22;6281;49.038;8.372;2023-06-22T00:24:10;22.10;99.90
12434;DHT22;6281;49.038;8.372;2023-06-22T00:26:37;21.70;99.90
12434;DHT22;6281;49.038;8.372;2023-06-22T00:29:05;21.40;99.90
12434;DHT22;6281;49.038;8.372;2023-06-22T00:31:32;21.50;99.90
12434;DHT22;6281;49.038;8.372;2023-06-22T00:33:59;21.60;99.90
12434;DHT22;6281;49.038;8.372;2023-06-22T00:36:26;21.70;99.90
12434;DHT22;6281;49.038;8.372;2023-06-22T00:38:53;21.70;99.90
12434;DHT22;6281;49.038;8.372;2023-06-22T00:41:20;21.60;99.90
12434;DHT22;6281;49.038;8.372;2023-06-22T00:43:47;21.50;99.90
12434;DHT22;6281;49.038;8.372;2023-06-22T00:46:15;21.20;99.90
12434;DHT22;6281;49.038;8.372;2023-06-22T00:48:42;21.10;99.90
12434;DHT22;6281;49.038;8.372;2023-06-22T00:51:10;21.00;99.90
12434;DHT22;6281;49.038;8.372;2023-06-22T00:53:37;20.90;99.90
12434;DHT22;6281;49.038;8.372;2023-06-22T00:56:04;20.70;99.90
12434;DHT22;6281;49.038;8.372;2023-06-22T00:58:32;20.80;99.90
12434;DHT22;6281;49.038;8.372;2023-06-22T01:00:59;20.70;99.90
12434;DHT22;6281;49.038;8.372;2023-06-22T01:03:29;20.70;99.90
12434;DHT22;6281;49.038;8.372;2023-06-22T01:06:01;20.60;99.90
12434;DHT22;6281;49.038;8.372;2023-06-22T01:08:33;20.60;99.90
12434;DHT22;6281;49.038;8.372;2023-06-22T01:11:07;20.60;99.90
12434;DHT22;6281;49.038;8.372;2023-06-22T01:16:23;20.60;99.90
12434;DHT22;6281;49.038;8.372;2023-06-22T01:18:54;20.60;99.90
12434;DHT22;6281;49.038;8.372;2023-06-22T01:21:24;20.60;99.90
12434;DHT22;6281;49.038;8.372;2023-06-22T01:24:02;20.50;99.90
12434;DHT22;6281;49.038;8.372;2023-06-22T01:26:38;20.40;99.90
12434;DHT22;6281;49.038;8.372;2023-06-22T01:29:11;20.60;99.90
12434;DHT22;6281;49.038;8.372;2023-06-22T01:31:39;20.60;99.90
12434;DHT22;6281;49.038;8.372;2023-06-22T01:34:08;20.70;99.90
12434;DHT22;6281;49.038;8.372;2023-06-22T01:36:36;20.70;99.90
12434;DHT22;6281;49.038;8.372;2023-06-22T01:39:05;20.70;99.90
12434;DHT22;6281;49.038;8.372;2023-06-22T01:41:35;20.70;99.90
12434;DHT22;6281;49.038;8.372;2023-06-22T01:44:03;20.80;99.90
12434;DHT22;6281;49.038;8.372;2023-06-22T01:46:33;20.70;99.90
12434;DHT22;6281;49.038;8.372;2023-06-22T01:49:01;20.70;99.90
12434;DHT22;6281;49.038;8.372;2023-06-22T01:51:28;20.70;99.90
12434;DHT22;6281;49.038;8.372;2023-06-22T01:53:55;20.60;99.90
12434;DHT22;6281;49.038;8.372;2023-06-22T01:56:22;20.60;99.90
12434;DHT22;6281;49.038;8.372;2023-06-22T02:01:42;20.70;99.90
12434;DHT22;6281;49.038;8.372;2023-06-22T02:04:13;20.60;99.90
12434;DHT22;6281;49.038;8.372;2023-06-22T02:06:43;20.60;99.90
12434;DHT22;6281;49.038;8.372;2023-06-22T02:09:15;20.60;99.90
12434;DHT22;6281;49.038;8.372;2023-06-22T02:11:45;20.70;99.90
12434;DHT22;6281;49.038;8.372;2023-06-22T02:14:14;20.60;99.90
12434;DHT22;6281;49.038;8.372;2023-06-22T02:16:43;20.50;99.90
12434;DHT22;6281;49.038;8.372;2023-06-22T02:19:10;20.50;99.90
12434;DHT22;6281;49.038;8.372;2023-06-22T02:21:36;20.50;99.90
12434;DHT22;6281;49.038;8.372;2023-06-22T02:24:04;20.50;99.90
12434;DHT22;6281;49.038;8.372;2023-06-22T02:26:31;20.40;99.90
12434;DHT22;6281;49.038;8.372;2023-06-22T02:28:59;20.40;99.90
12434;DHT22;6281;49.038;8.372;2023-06-22T02:31:26;20.30;99.90
12434;DHT22;6281;49.038;8.372;2023-06-22T02:33:57;20.30;99.90
12434;DHT22;6281;49.038;8.372;2023-06-22T02:36:24;20.40;99.90
12434;DHT22;6281;49.038;8.372;2023-06-22T02:38:52;20.40;99.90
12434;DHT22;6281;49.038;8.372;2023-06-22T02:41:19;20.30;99.90
12434;DHT22;6281;49.038;8.372;2023-06-22T02:43:47;20.30;99.90
12434;DHT22;6281;49.038;8.372;2023-06-22T02:46:14;20.40;99.90
12434;DHT22;6281;49.038;8.372;2023-06-22T02:48:41;20.30;99.90
12434;DHT22;6281;49.038;8.372;2023-06-22T02:51:09;20.40;99.90
12434;DHT22;6281;49.038;8.372;2023-06-22T02:53:36;20.30;99.90
12434;DHT22;6281;49.038;8.372;2023-06-22T02:56:03;20.20;99.90
12434;DHT22;6281;49.038;8.372;2023-06-22T02:58:31;20.30;99.90
12434;DHT22;6281;49.038;8.372;2023-06-22T03:01:04;20.20;99.90
12434;DHT22;6281;49.038;8.372;2023-06-22T03:03:31;20.20;99.90
12434;DHT22;6281;49.038;8.372;2023-06-22T03:05:57;20.20;99.90
12434;DHT22;6281;49.038;8.372;2023-06-22T03:08:27;20.30;99.90
12434;DHT22;6281;49.038;8.372;2023-06-22T03:10:54;20.10;99.90
12434;DHT22;6281;49.038;8.372;2023-06-22T03:13:21;20.10;99.90
12434;DHT22;6281;49.038;8.372;2023-06-22T03:15:48;20.10;99.90
12434;DHT22;6281;49.038;8.372;2023-06-22T03:18:15;20.10;99.90
12434;DHT22;6281;49.038;8.372;2023-06-22T03:20:42;20.10;99.90
12434;DHT22;6281;49.038;8.372;2023-06-22T03:23:09;20.10;99.90
12434;DHT22;6281;49.038;8.372;2023-06-22T03:25:37;20.10;99.90
12434;DHT22;6281;49.038;8.372;2023-06-22T03:28:04;20.10;99.90
12434;DHT22;6281;49.038;8.372;2023-06-22T03:30:30;20.10;99.90
12434;DHT22;6281;49.038;8.372;2023-06-22T03:32:57;20.00;99.90
12434;DHT22;6281;49.038;8.372;2023-06-22T03:35:24;19.90;99.90
12434;DHT22;6281;49.038;8.372;2023-06-22T03:37:51;20.10;99.90
12434;DHT22;6281;49.038;8.372;2023-06-22T03:40:18;20.00;99.90
12434;DHT22;6281;49.038;8.372;2023-06-22T03:42:46;20.10;99.90
12434;DHT22;6281;49.038;8.372;2023-06-22T03:45:13;20.00;99.90
12434;DHT22;6281;49.038;8.372;2023-06-22T03:47:40;20.10;99.90
12434;DHT22;6281;49.038;8.372;2023-06-22T03:50:07;20.10;99.90
12434;DHT22;6281;49.038;8.372;2023-06-22T03:52:34;20.10;99.90
12434;DHT22;6281;49.038;8.372;2023-06-22T03:55:01;20.20;99.90
12434;DHT22;6281;49.038;8.372;2023-06-22T03:57:28;20.20;99.90
12434;DHT22;6281;49.038;8.372;2023-06-22T03:59:57;20.10;99.90
12434;DHT22;6281;49.038;8.372;2023-06-22T04:02:24;20.20;99.90
12434;DHT22;6281;49.038;8.372;2023-06-22T04:04:51;20.20;99.90
12434;DHT22;6281;49.038;8.372;2023-06-22T04:07:18;20.10;99.90
12434;DHT22;6281;49.038;8.372;2023-06-22T04:09:45;20.10;99.90
12434;DHT22;6281;49.038;8.372;2023-06-22T04:12:12;20.10;99.90
12434;DHT22;6281;49.038;8.372;2023-06-22T04:14:38;20.10;99.90
12434;DHT22;6281;49.038;8.372;2023-06-22T04:17:07;20.10;99.90
12434;DHT22;6281;49.038;8.372;2023-06-22T04:19:33;19.90;99.90
12434;DHT22;6281;49.038;8.372;2023-06-22T04:22:00;20.00;99.90
12434;DHT22;6281;49.038;8.372;2023-06-22T04:24:27;20.10;99.90
12434;DHT22;6281;49.038;8.372;2023-06-22T04:26:54;20.10;99.90
12434;DHT22;6281;49.038;8.372;2023-06-22T04:29:21;20.20;99.90
12434;DHT22;6281;49.038;8.372;2023-06-22T04:31:54;20.20;99.90
12434;DHT22;6281;49.038;8.372;2023-06-22T04:34:25;20.20;99.90
12434;DHT22;6281;49.038;8.372;2023-06-22T04:36:52;20.10;99.90
12434;DHT22;6281;49.038;8.372;2023-06-22T04:39:20;20.30;99.90
12434;DHT22;6281;49.038;8.372;2023-06-22T04:41:47;20.30;99.90
12434;DHT22;6281;49.038;8.372;2023-06-22T04:44:15;20.30;99.90
12434;DHT22;6281;49.038;8.372;2023-06-22T04:46:49;20.30;99.90
12434;DHT22;6281;49.038;8.372;2023-06-22T04:49:20;20.30;99.90
12434;DHT22;6281;49.038;8.372;2023-06-22T04:51:48;20.20;99.90
12434;DHT22;6281;49.038;8.372;2023-06-22T04:54:17;20.30;99.90
12434;DHT22;6281;49.038;8.372;2023-06-22T04:56:44;20.40;99.90
12434;DHT22;6281;49.038;8.372;2023-06-22T04:59:12;20.30;99.90
12434;DHT22;6281;49.038;8.372;2023-06-22T05:01:39;20.30;99.90
12434;DHT22;6281;49.038;8.372;2023-06-22T05:04:06;20.40;99.90
12434;DHT22;6281;49.038;8.372;2023-06-22T05:06:33;20.50;99.90
12434;DHT22;6281;49.038;8.372;2023-06-22T05:09:02;20.50;99.90
12434;DHT22;6281;49.038;8.372;2023-06-22T05:11:30;20.40;99.90
12434;DHT22;6281;49.038;8.372;2023-06-22T05:13:57;20.30;99.90
12434;DHT22;6281;49.038;8.372;2023-06-22T05:16:24;20.40;99.90
12434;DHT22;6281;49.038;8.372;2023-06-22T05:18:52;20.50;99.90
12434;DHT22;6281;49.038;8.372;2023-06-22T05:21:22;20.60;99.90
12434;DHT22;6281;49.038;8.372;2023-06-22T05:23:50;20.60;99.90
12434;DHT22;6281;49.038;8.372;2023-06-22T05:26:19;20.70;99.90
12434;DHT22;6281;49.038;8.372;2023-06-22T05:28:47;20.70;99.90
12434;DHT22;6281;49.038;8.372;2023-06-22T05:31:14;20.70;99.90
12434;DHT22;6281;49.038;8.372;2023-06-22T05:33:42;20.80;99.90
12434;DHT22;6281;49.038;8.372;2023-06-22T05:36:09;20.80;99.90
12434;DHT22;6281;49.038;8.372;2023-06-22T05:38:36;20.90;99.90
12434;DHT22;6281;49.038;8.372;2023-06-22T05:41:03;20.90;99.90
12434;DHT22;6281;49.038;8.372;2023-06-22T05:43:32;20.80;99.90
12434;DHT22;6281;49.038;8.372;2023-06-22T05:46:00;20.90;99.90
12434;DHT22;6281;49.038;8.372;2023-06-22T05:48:27;21.00;99.90
12434;DHT22;6281;49.038;8.372;2023-06-22T05:50:54;21.00;99.90
12434;DHT22;6281;49.038;8.372;2023-06-22T05:53:21;21.10;99.90
12434;DHT22;6281;49.038;8.372;2023-06-22T05:55:48;21.10;99.90
12434;DHT22;6281;49.038;8.372;2023-06-22T05:58:15;21.00;99.90
12434;DHT22;6281;49.038;8.372;2023-06-22T06:01:14;21.10;99.90
12434;DHT22;6281;49.038;8.372;2023-06-22T06:03:42;21.10;99.90
12434;DHT22;6281;49.038;8.372;2023-06-22T06:06:09;21.10;99.90
12434;DHT22;6281;49.038;8.372;2023-06-22T06:08:37;21.10;99.90
12434;DHT22;6281;49.038;8.372;2023-06-22T06:11:04;21.10;99.90
12434;DHT22;6281;49.038;8.372;2023-06-22T06:13:31;21.20;99.90
12434;DHT22;6281;49.038;8.372;2023-06-22T06:15:57;21.20;99.90
12434;DHT22;6281;49.038;8.372;2023-06-22T06:18:26;21.40;99.90
12434;DHT22;6281;49.038;8.372;2023-06-22T06:20:53;21.40;99.90
12434;DHT22;6281;49.038;8.372;2023-06-22T06:23:20;21.50;99.90
12434;DHT22;6281;49.038;8.372;2023-06-22T06:25:47;21.70;99.90
12434;DHT22;6281;49.038;8.372;2023-06-22T06:28:14;21.80;99.90
12434;DHT22;6281;49.038;8.372;2023-06-22T06:30:42;21.90;99.90
12434;DHT22;6281;49.038;8.372;2023-06-22T06:33:09;21.90;99.90
12434;DHT22;6281;49.038;8.372;2023-06-22T06:35:37;21.90;99.90
12434;DHT22;6281;49.038;8.372;2023-06-22T06:38:04;21.90;99.90
12434;DHT22;6281;49.038;8.372;2023-06-22T06:40:31;22.00;99.90
12434;DHT22;6281;49.038;8.372;2023-06-22T06:42:58;22.20;99.90
12434;DHT22;6281;49.038;8.372;2023-06-22T06:45:26;22.20;99.90
12434;DHT22;6281;49.038;8.372;2023-06-22T06:47:54;22.30;99.90
12434;DHT22;6281;49.038;8.372;2023-06-22T06:50:21;22.30;99.90
12434;DHT22;6281;49.038;8.372;2023-06-22T06:52:49;22.30;99.90
12434;DHT22;6281;49.038;8.372;2023-06-22T06:55:16;22.40;99.90
12434;DHT22;6281;49.038;8.372;2023-06-22T06:57:44;22.40;99.90
12434;DHT22;6281;49.038;8.372;2023-06-22T07:00:14;22.60;99.90
12434;DHT22;6281;49.038;8.372;2023-06-22T07:02:42;22.70;99.90
12434;DHT22;6281;49.038;8.372;2023-06-22T07:05:10;22.70;99.90
12434;DHT22;6281;49.038;8.372;2023-06-22T07:07:37;22.70;99.90
12434;DHT22;6281;49.038;8.372;2023-06-22T07:10:06;22.80;99.90
12434;DHT22;6281;49.038;8.372;2023-06-22T07:12:33;23.00;99.90
12434;DHT22;6281;49.038;8.372;2023-06-22T07:15:04;23.00;99.90
12434;DHT22;6281;49.038;8.372;2023-06-22T07:17:33;23.10;99.90
12434;DHT22;6281;49.038;8.372;2023-06-22T07:20:00;23.30;99.90
12434;DHT22;6281;49.038;8.372;2023-06-22T07:22:27;23.40;99.90
12434;DHT22;6281;49.038;8.372;2023-06-22T07:24:54;23.50;99.90
12434;DHT22;6281;49.038;8.372;2023-06-22T07:27:23;23.40;99.90
12434;DHT22;6281;49.038;8.372;2023-06-22T07:29:50;23.60;99.90
12434;DHT22;6281;49.038;8.372;2023-06-22T07:32:17;23.60;99.90
12434;DHT22;6281;49.038;8.372;2023-06-22T07:34:43;23.60;99.90
12434;DHT22;6281;49.038;8.372;2023-06-22T07:37:10;23.70;99.90
12434;DHT22;6281;49.038;8.372;2023-06-22T07:39:37;23.80;99.90
12434;DHT22;6281;49.038;8.372;2023-06-22T07:42:04;24.00;99.90
12434;DHT22;6281;49.038;8.372;2023-06-22T07:44:33;24.00;99.90
12434;DHT22;6281;49.038;8.372;2023-06-22T07:46:59;24.10;99.90
12434;DHT22;6281;49.038;8.372;2023-06-22T07:49:28;24.20;99.90
12434;DHT22;6281;49.038;8.372;2023-06-22T07:51:55;24.40;99.90
12434;DHT22;6281;49.038;8.372;2023-06-22T07:54:22;24.50;99.90
12434;DHT22;6281;49.038;8.372;2023-06-22T07:56:48;24.60;99.90
12434;DHT22;6281;49.038;8.372;2023-06-22T07:59:15;24.70;99.90
12434;DHT22;6281;49.038;8.372;2023-06-22T08:01:44;24.60;99.90
12434;DHT22;6281;49.038;8.372;2023-06-22T08:04:11;24.80;99.90
12434;DHT22;6281;49.038;8.372;2023-06-22T08:06:37;24.90;99.90
12434;DHT22;6281;49.038;8.372;2023-06-22T08:09:04;25.10;99.90
12434;DHT22;6281;49.038;8.372;2023-06-22T08:11:31;25.20;99.90
12434;DHT22;6281;49.038;8.372;2023-06-22T08:13:58;25.40;99.90
12434;DHT22;6281;49.038;8.372;2023-06-22T08:16:25;25.30;99.90
12434;DHT22;6281;49.038;8.372;2023-06-22T08:18:53;25.40;99.90
12434;DHT22;6281;49.038;8.372;2023-06-22T08:21:20;25.60;99.90
12434;DHT22;6281;49.038;8.372;2023-06-22T08:23:47;25.70;99.90
12434;DHT22;6281;49.038;8.372;2023-06-22T08:26:14;25.80;99.90
12434;DHT22;6281;49.038;8.372;2023-06-22T08:28:41;25.90;99.90
12434;DHT22;6281;49.038;8.372;2023-06-22T08:31:08;26.20;99.90
12434;DHT22;6281;49.038;8.372;2023-06-22T08:33:35;26.50;99.90
12434;DHT22;6281;49.038;8.372;2023-06-22T08:36:04;26.70;99.90
12434;DHT22;6281;49.038;8.372;2023-06-22T08:38:31;26.70;99.90
12434;DHT22;6281;49.038;8.372;2023-06-22T08:40:58;26.90;99.90
12434;DHT22;6281;49.038;8.372;2023-06-22T08:43:25;26.90;99.90
12434;DHT22;6281;49.038;8.372;2023-06-22T08:45:52;27.30;99.90
12434;DHT22;6281;49.038;8.372;2023-06-22T08:48:19;27.10;99.90
12434;DHT22;6281;49.038;8.372;2023-06-22T08:50:45;27.10;99.90
12434;DHT22;6281;49.038;8.372;2023-06-22T08:53:13;27.10;99.90
12434;DHT22;6281;49.038;8.372;2023-06-22T08:55:40;27.30;99.90
12434;DHT22;6281;49.038;8.372;2023-06-22T08:58:07;27.40;99.90
12434;DHT22;6281;49.038;8.372;2023-06-22T09:00:34;27.30;99.90
12434;DHT22;6281;49.038;8.372;2023-06-22T09:03:01;27.20;99.90
12434;DHT22;6281;49.038;8.372;2023-06-22T09:05:29;27.30;99.90
12434;DHT22;6281;49.038;8.372;2023-06-22T09:07:56;27.40;99.90
12434;DHT22;6281;49.038;8.372;2023-06-22T09:10:25;27.50;99.90
12434;DHT22;6281;49.038;8.372;2023-06-22T09:12:52;27.60;99.90
12434;DHT22;6281;49.038;8.372;2023-06-22T09:15:19;27.60;99.90
12434;DHT22;6281;49.038;8.372;2023-06-22T09:17:45;28.00;99.90
12434;DHT22;6281;49.038;8.372;2023-06-22T09:20:13;28.00;99.90
12434;DHT22;6281;49.038;8.372;2023-06-22T09:22:40;28.10;99.90
12434;DHT22;6281;49.038;8.372;2023-06-22T09:25:07;28.60;99.90
12434;DHT22;6281;49.038;8.372;2023-06-22T09:27:35;28.40;99.90
12434;DHT22;6281;49.038;8.372;2023-06-22T09:30:03;28.30;99.90
12434;DHT22;6281;49.038;8.372;2023-06-22T09:32:30;28.60;99.90
12434;DHT22;6281;49.038;8.372;2023-06-22T09:34:57;28.70;99.90
12434;DHT22;6281;49.038;8.372;2023-06-22T09:37:23;28.80;99.90
12434;DHT22;6281;49.038;8.372;2023-06-22T09:39:50;28.70;99.90
12434;DHT22;6281;49.038;8.372;2023-06-22T09:42:17;28.70;99.90
12434;DHT22;6281;49.038;8.372;2023-06-22T09:44:45;28.30;99.90
12434;DHT22;6281;49.038;8.372;2023-06-22T09:47:12;28.80;99.90
12434;DHT22;6281;49.038;8.372;2023-06-22T09:49:38;28.80;99.90
12434;DHT22;6281;49.038;8.372;2023-06-22T09:52:06;28.90;99.90
12434;DHT22;6281;49.038;8.372;2023-06-22T09:54:33;28.90;99.90
12434;DHT22;6281;49.038;8.372;2023-06-22T09:57:00;29.30;99.90
12434;DHT22;6281;49.038;8.372;2023-06-22T09:59:26;29.60;99.90
12434;DHT22;6281;49.038;8.372;2023-06-22T10:01:54;29.00;99.90
12434;DHT22;6281;49.038;8.372;2023-06-22T10:04:21;28.80;99.90
12434;DHT22;6281;49.038;8.372;2023-06-22T10:06:50;28.50;99.90
12434;DHT22;6281;49.038;8.372;2023-06-22T10:09:16;28.50;99.90
12434;DHT22;6281;49.038;8.372;2023-06-22T10:11:44;28.20;99.90
12434;DHT22;6281;49.038;8.372;2023-06-22T10:14:10;28.40;99.90
12434;DHT22;6281;49.038;8.372;2023-06-22T10:16:37;28.70;99.90
12434;DHT22;6281;49.038;8.372;2023-06-22T10:19:08;28.80;99.90
12434;DHT22;6281;49.038;8.372;2023-06-22T10:21:35;28.80;99.90
12434;DHT22;6281;49.038;8.372;2023-06-22T10:24:02;28.80;99.90
12434;DHT22;6281;49.038;8.372;2023-06-22T10:26:31;28.80;99.90
12434;DHT22;6281;49.038;8.372;2023-06-22T10:28:58;29.20;99.90
12434;DHT22;6281;49.038;8.372;2023-06-22T10:31:25;29.60;99.90
12434;DHT22;6281;49.038;8.372;2023-06-22T10:33:53;29.10;99.90
12434;DHT22;6281;49.038;8.372;2023-06-22T10:36:22;29.00;99.90
12434;DHT22;6281;49.038;8.372;2023-06-22T10:38:49;29.40;99.90
12434;DHT22;6281;49.038;8.372;2023-06-22T10:41:16;29.70;99.90
12434;DHT22;6281;49.038;8.372;2023-06-22T10:43:43;29.50;99.90
12434;DHT22;6281;49.038;8.372;2023-06-22T10:46:09;29.40;99.90
12434;DHT22;6281;49.038;8.372;2023-06-22T10:48:36;29.10;99.90
12434;DHT22;6281;49.038;8.372;2023-06-22T10:51:03;29.20;99.90
12434;DHT22;6281;49.038;8.372;2023-06-22T10:53:32;29.50;99.90
12434;DHT22;6281;49.038;8.372;2023-06-22T10:55:59;29.40;99.90
12434;DHT22;6281;49.038;8.372;2023-06-22T10:58:26;29.90;99.90
12434;DHT22;6281;49.038;8.372;2023-06-22T11:00:52;30.10;99.90
12434;DHT22;6281;49.038;8.372;2023-06-22T11:03:19;30.20;99.90
12434;DHT22;6281;49.038;8.372;2023-06-22T11:05:46;31.10;99.90
12434;DHT22;6281;49.038;8.372;2023-06-22T11:08:13;30.70;99.90
12434;DHT22;6281;49.038;8.372;2023-06-22T11:10:42;31.00;99.90
12434;DHT22;6281;49.038;8.372;2023-06-22T11:13:09;31.30;99.90
12434;DHT22;6281;49.038;8.372;2023-06-22T11:15:36;31.60;99.90
12434;DHT22;6281;49.038;8.372;2023-06-22T11:18:03;31.00;99.90
12434;DHT22;6281;49.038;8.372;2023-06-22T11:20:33;31.20;99.90
12434;DHT22;6281;49.038;8.372;2023-06-22T11:23:04;30.70;99.90
12434;DHT22;6281;49.038;8.372;2023-06-22T11:25:31;30.40;99.90
12434;DHT22;6281;49.038;8.372;2023-06-22T11:28:01;30.60;99.90
12434;DHT22;6281;49.038;8.372;2023-06-22T11:30:28;30.80;99.90
12434;DHT22;6281;49.038;8.372;2023-06-22T11:32:56;30.90;99.90
12434;DHT22;6281;49.038;8.372;2023-06-22T11:35:23;31.00;99.90
12434;DHT22;6281;49.038;8.372;2023-06-22T11:37:50;31.10;99.90
12434;DHT22;6281;49.038;8.372;2023-06-22T11:40:17;31.10;99.90
12434;DHT22;6281;49.038;8.372;2023-06-22T11:42:43;30.90;99.90
12434;DHT22;6281;49.038;8.372;2023-06-22T11:45:12;30.70;99.90
12434;DHT22;6281;49.038;8.372;2023-06-22T11:47:39;30.70;99.90
12434;DHT22;6281;49.038;8.372;2023-06-22T11:50:06;30.60;99.90
12434;DHT22;6281;49.038;8.372;2023-06-22T11:52:33;30.60;99.90
12434;DHT22;6281;49.038;8.372;2023-06-22T11:55:01;30.60;99.90
12434;DHT22;6281;49.038;8.372;2023-06-22T11:57:29;30.60;99.90
12434;DHT22;6281;49.038;8.372;2023-06-22T11:59:56;30.90;99.90
12434;DHT22;6281;49.038;8.372;2023-06-22T12:02:25;31.40;99.90
12434;DHT22;6281;49.038;8.372;2023-06-22T12:04:51;32.50;99.90
12434;DHT22;6281;49.038;8.372;2023-06-22T12:07:21;32.50;99.90
12434;DHT22;6281;49.038;8.372;2023-06-22T12:09:47;31.80;99.90
12434;DHT22;6281;49.038;8.372;2023-06-22T12:12:14;32.20;99.90
12434;DHT22;6281;49.038;8.372;2023-06-22T12:14:41;32.80;99.90
12434;DHT22;6281;49.038;8.372;2023-06-22T12:17:08;33.00;99.90
12434;DHT22;6281;49.038;8.372;2023-06-22T12:19:36;33.40;99.90
12434;DHT22;6281;49.038;8.372;2023-06-22T12:22:03;33.50;99.90
12434;DHT22;6281;49.038;8.372;2023-06-22T12:24:30;33.60;99.90
12434;DHT22;6281;49.038;8.372;2023-06-22T12:26:56;33.50;99.90
12434;DHT22;6281;49.038;8.372;2023-06-22T12:29:23;33.60;99.90
12434;DHT22;6281;49.038;8.372;2023-06-22T12:31:50;33.70;99.90
12434;DHT22;6281;49.038;8.372;2023-06-22T12:34:17;33.20;99.90
12434;DHT22;6281;49.038;8.372;2023-06-22T12:36:45;32.60;99.90
12434;DHT22;6281;49.038;8.372;2023-06-22T12:39:13;32.10;99.90
12434;DHT22;6281;49.038;8.372;2023-06-22T12:41:40;31.70;99.90
12434;DHT22;6281;49.038;8.372;2023-06-22T12:44:07;31.80;99.90
12434;DHT22;6281;49.038;8.372;2023-06-22T12:46:33;31.70;99.90
12434;DHT22;6281;49.038;8.372;2023-06-22T12:49:03;31.60;99.90
12434;DHT22;6281;49.038;8.372;2023-06-22T12:51:30;31.70;99.90
12434;DHT22;6281;49.038;8.372;2023-06-22T12:53:58;32.00;99.90
12434;DHT22;6281;49.038;8.372;2023-06-22T12:56:25;31.90;99.90
12434;DHT22;6281;49.038;8.372;2023-06-22T12:58:52;31.90;99.90
12434;DHT22;6281;49.038;8.372;2023-06-22T13:01:18;31.70;99.90
12434;DHT22;6281;49.038;8.372;2023-06-22T13:03:45;31.80;99.90
12434;DHT22;6281;49.038;8.372;2023-06-22T13:06:12;31.60;99.90
12434;DHT22;6281;49.038;8.372;2023-06-22T13:08:39;31.80;99.90
12434;DHT22;6281;49.038;8.372;2023-06-22T13:11:07;31.70;99.90
12434;DHT22;6281;49.038;8.372;2023-06-22T13:13:34;31.80;99.90
12434;DHT22;6281;49.038;8.372;2023-06-22T13:16:00;32.30;99.90
12434;DHT22;6281;49.038;8.372;2023-06-22T13:18:27;32.40;99.90
12434;DHT22;6281;49.038;8.372;2023-06-22T13:20:54;32.60;99.90
12434;DHT22;6281;49.038;8.372;2023-06-22T13:23:21;32.40;99.90
12434;DHT22;6281;49.038;8.372;2023-06-22T13:25:48;33.20;99.90
12434;DHT22;6281;49.038;8.372;2023-06-22T13:28:20;33.30;99.90
12434;DHT22;6281;49.038;8.372;2023-06-22T13:30:47;32.20;99.90
12434;DHT22;6281;49.038;8.372;2023-06-22T13:33:14;32.20;99.90
12434;DHT22;6281;49.038;8.372;2023-06-22T13:35:41;31.90;99.90
12434;DHT22;6281;49.038;8.372;2023-06-22T13:38:09;32.40;99.90
12434;DHT22;6281;49.038;8.372;2023-06-22T13:40:36;32.90;99.90
12434;DHT22;6281;49.038;8.372;2023-06-22T13:43:03;32.80;99.90
12434;DHT22;6281;49.038;8.372;2023-06-22T13:45:32;32.40;99.90
12434;DHT22;6281;49.038;8.372;2023-06-22T13:47:59;32.00;99.90
12434;DHT22;6281;49.038;8.372;2023-06-22T13:50:26;32.50;99.90
12434;DHT22;6281;49.038;8.372;2023-06-22T13:52:54;33.70;99.90
12434;DHT22;6281;49.038;8.372;2023-06-22T13:55:22;33.40;99.90
12434;DHT22;6281;49.038;8.372;2023-06-22T13:57:49;34.10;99.90
12434;DHT22;6281;49.038;8.372;2023-06-22T14:00:17;32.20;99.90
12434;DHT22;6281;49.038;8.372;2023-06-22T14:02:45;31.40;99.90
12434;DHT22;6281;49.038;8.372;2023-06-22T14:05:12;30.60;99.90
12434;DHT22;6281;49.038;8.372;2023-06-22T14:07:39;30.60;99.90
12434;DHT22;6281;49.038;8.372;2023-06-22T14:10:07;30.50;99.90
12434;DHT22;6281;49.038;8.372;2023-06-22T14:12:34;30.40;99.90
12434;DHT22;6281;49.038;8.372;2023-06-22T14:15:01;30.30;99.90
12434;DHT22;6281;49.038;8.372;2023-06-22T14:17:28;30.00;99.90
12434;DHT22;6281;49.038;8.372;2023-06-22T14:19:56;29.80;99.90
12434;DHT22;6281;49.038;8.372;2023-06-22T14:22:23;29.70;99.90
12434;DHT22;6281;49.038;8.372;2023-06-22T14:24:51;29.50;99.90
12434;DHT22;6281;49.038;8.372;2023-06-22T14:27:18;29.30;99.90
12434;DHT22;6281;49.038;8.372;2023-06-22T14:29:44;29.10;99.90
12434;DHT22;6281;49.038;8.372;2023-06-22T14:32:11;29.20;99.90
12434;DHT22;6281;49.038;8.372;2023-06-22T14:34:38;29.30;99.90
12434;DHT22;6281;49.038;8.372;2023-06-22T14:37:07;29.20;99.90
12434;DHT22;6281;49.038;8.372;2023-06-22T14:39:35;29.10;99.90
12434;DHT22;6281;49.038;8.372;2023-06-22T14:42:02;29.30;99.90
12434;DHT22;6281;49.038;8.372;2023-06-22T14:44:29;29.70;99.90
12434;DHT22;6281;49.038;8.372;2023-06-22T14:46:56;30.00;99.90
12434;DHT22;6281;49.038;8.372;2023-06-22T14:49:23;29.80;99.90
12434;DHT22;6281;49.038;8.372;2023-06-22T14:51:50;29.70;99.90
12434;DHT22;6281;49.038;8.372;2023-06-22T14:54:18;30.00;99.90
12434;DHT22;6281;49.038;8.372;2023-06-22T14:56:45;30.10;99.90
12434;DHT22;6281;49.038;8.372;2023-06-22T14:59:12;30.80;99.90
12434;DHT22;6281;49.038;8.372;2023-06-22T15:01:39;31.20;99.90
12434;DHT22;6281;49.038;8.372;2023-06-22T15:04:06;31.20;99.90
12434;DHT22;6281;49.038;8.372;2023-06-22T15:06:33;31.20;99.90
12434;DHT22;6281;49.038;8.372;2023-06-22T15:09:00;30.70;99.90
12434;DHT22;6281;49.038;8.372;2023-06-22T15:11:28;31.00;99.90
12434;DHT22;6281;49.038;8.372;2023-06-22T15:13:58;31.60;99.90
12434;DHT22;6281;49.038;8.372;2023-06-22T15:16:25;31.10;99.90
12434;DHT22;6281;49.038;8.372;2023-06-22T15:18:52;32.10;99.90
12434;DHT22;6281;49.038;8.372;2023-06-22T15:21:19;32.60;99.90
12434;DHT22;6281;49.038;8.372;2023-06-22T15:23:46;32.50;99.90
12434;DHT22;6281;49.038;8.372;2023-06-22T15:26:13;32.10;99.90
12434;DHT22;6281;49.038;8.372;2023-06-22T15:28:41;32.20;99.90
12434;DHT22;6281;49.038;8.372;2023-06-22T15:31:08;32.10;99.90
12434;DHT22;6281;49.038;8.372;2023-06-22T15:33:35;32.20;99.90
12434;DHT22;6281;49.038;8.372;2023-06-22T15:36:02;32.10;99.90
12434;DHT22;6281;49.038;8.372;2023-06-22T15:38:31;31.80;99.90
12434;DHT22;6281;49.038;8.372;2023-06-22T15:40:58;31.70;99.90
12434;DHT22;6281;49.038;8.372;2023-06-22T15:43:25;31.70;99.90
12434;DHT22;6281;49.038;8.372;2023-06-22T15:45:53;32.00;99.90
12434;DHT22;6281;49.038;8.372;2023-06-22T15:48:20;31.80;99.90
12434;DHT22;6281;49.038;8.372;2023-06-22T15:50:47;31.80;99.90
12434;DHT22;6281;49.038;8.372;2023-06-22T15:53:14;31.90;99.90